AFL357 UNNT-UNKL
Flight info
| Callsign | AFL357 |
|---|---|
| Flight time | N/A |
| Altitude | 35000 |
| Route | OGATI1J OGATI A308 RISPA A366 KESED A309 ROTLI A300 RANET RANET2R |
| Aircraft | A20N/M-ICAO/C |
Departure
| Time | 2026-05-01 14:35 |
|---|---|
| Airport | Novosibirsk Tolmachevo Airport (UNNT) |
Arrival
| Time | N/A |
|---|---|
| Airport | Krasnoyarsk International Airport (UNKL) |
| Time | Latitude | Longitude | Altitude | Speed | Heading |
|---|---|---|---|---|---|
| 2026-05-01 14:07 | 55.01075 | 82.66400 | 373 ft | 0 kts | 352° |
| 2026-05-01 14:28 | 55.01082 | 82.66390 | 373 ft | 1 kts | 318° |
| 2026-05-01 14:28 | 55.01083 | 82.66367 | 373 ft | 3 kts | 273° |
| 2026-05-01 14:29 | 55.01067 | 82.66337 | 373 ft | 4 kts | 207° |
| 2026-05-01 14:29 | 55.01028 | 82.66333 | 373 ft | 9 kts | 191° |
| 2026-05-01 14:30 | 55.00936 | 82.65870 | 373 ft | 17 kts | 261° |
| 2026-05-01 14:30 | 55.00926 | 82.65754 | 373 ft | 1 kts | 261° |
| 2026-05-01 14:30 | 55.00916 | 82.65644 | 373 ft | 19 kts | 261° |
| 2026-05-01 14:31 | 55.00878 | 82.65114 | 373 ft | 25 kts | 265° |
| 2026-05-01 14:31 | 55.00891 | 82.64851 | 373 ft | 15 kts | 283° |
| 2026-05-01 14:31 | 55.00922 | 82.64603 | 373 ft | 26 kts | 283° |
| 2026-05-01 14:31 | 55.00959 | 82.64316 | 373 ft | 0 kts | 281° |
| 2026-05-01 14:32 | 55.00972 | 82.64216 | 373 ft | 19 kts | 286° |
| 2026-05-01 14:32 | 55.01006 | 82.64031 | 373 ft | 10 kts | 309° |
| 2026-05-01 14:32 | 55.01017 | 82.64017 | 373 ft | 0 kts | 329° |
| 2026-05-01 14:33 | 55.01025 | 82.64011 | 373 ft | 5 kts | 336° |
| 2026-05-01 14:33 | 55.01113 | 82.63989 | 375 ft | 16 kts | 9° |
| 2026-05-01 14:33 | 55.01160 | 82.64117 | 374 ft | 0 kts | 79° |
| 2026-05-01 14:34 | 55.01160 | 82.64122 | 374 ft | 8 kts | 79° |
| 2026-05-01 14:34 | 55.01219 | 82.64774 | 373 ft | 98 kts | 81° |
| 2026-05-01 14:35 | 55.01368 | 82.66365 | 392 ft | 163 kts | 81° |
| 2026-05-01 14:35 | 55.01554 | 82.68331 | 1151 ft | 167 kts | 83° |
| 2026-05-01 14:35 | 55.01703 | 82.70443 | 1885 ft | 182 kts | 90° |
| 2026-05-01 14:35 | 55.01798 | 82.72702 | 2779 ft | 192 kts | 96° |
| 2026-05-01 14:36 | 55.01685 | 82.75045 | 3616 ft | 207 kts | 101° |
| 2026-05-01 14:36 | 55.01478 | 82.77744 | 4007 ft | 248 kts | 102° |
| 2026-05-01 14:36 | 55.01158 | 82.81004 | 4006 ft | 297 kts | 103° |
| 2026-05-01 14:36 | 55.00799 | 82.84596 | 3998 ft | 297 kts | 102° |
| 2026-05-01 14:37 | 55.00470 | 82.88035 | 4000 ft | 279 kts | 102° |
| 2026-05-01 14:37 | 55.00166 | 82.91265 | 4003 ft | 261 kts | 102° |
| 2026-05-01 14:37 | 54.99875 | 82.94348 | 4038 ft | 260 kts | 103° |
| 2026-05-01 14:37 | 54.99575 | 82.97473 | 4502 ft | 262 kts | 102° |
| 2026-05-01 14:38 | 54.99275 | 83.00601 | 5472 ft | 263 kts | 102° |
| 2026-05-01 14:38 | 54.98971 | 83.03757 | 6362 ft | 271 kts | 102° |
| 2026-05-01 14:38 | 54.98655 | 83.07036 | 7217 ft | 277 kts | 102° |
| 2026-05-01 14:38 | 54.98333 | 83.10387 | 8017 ft | 284 kts | 102° |
| 2026-05-01 14:39 | 54.98004 | 83.13802 | 8640 ft | 289 kts | 102° |
| 2026-05-01 14:39 | 54.97668 | 83.17280 | 9287 ft | 294 kts | 102° |
| 2026-05-01 14:39 | 54.97326 | 83.20812 | 9927 ft | 298 kts | 102° |
| 2026-05-01 14:39 | 54.96976 | 83.24425 | 10519 ft | 310 kts | 102° |
| 2026-05-01 14:40 | 54.96669 | 83.28218 | 11140 ft | 323 kts | 99° |
| 2026-05-01 14:40 | 54.96391 | 83.32173 | 11767 ft | 335 kts | 99° |
| 2026-05-01 14:40 | 54.96113 | 83.36209 | 12394 ft | 346 kts | 99° |
| 2026-05-01 14:40 | 54.95814 | 83.40433 | 13040 ft | 356 kts | 99° |
| 2026-05-01 14:41 | 54.95500 | 83.44764 | 13698 ft | 366 kts | 99° |
| 2026-05-01 14:41 | 54.95171 | 83.49200 | 14300 ft | 374 kts | 99° |
| 2026-05-01 14:41 | 54.94832 | 83.53723 | 14904 ft | 380 kts | 99° |
| 2026-05-01 14:41 | 54.94486 | 83.58302 | 15519 ft | 384 kts | 99° |
| 2026-05-01 14:42 | 54.94134 | 83.62931 | 16136 ft | 388 kts | 99° |
| 2026-05-01 14:42 | 54.93777 | 83.67606 | 16768 ft | 392 kts | 99° |
| 2026-05-01 14:42 | 54.93414 | 83.72326 | 17421 ft | 396 kts | 99° |
| 2026-05-01 14:42 | 54.93050 | 83.77037 | 18082 ft | 401 kts | 99° |
| 2026-05-01 14:43 | 54.92675 | 83.81865 | 18687 ft | 404 kts | 99° |
| 2026-05-01 14:43 | 54.92297 | 83.86721 | 19270 ft | 406 kts | 99° |
| 2026-05-01 14:43 | 54.91914 | 83.91604 | 19875 ft | 409 kts | 99° |
| 2026-05-01 14:43 | 54.91526 | 83.96515 | 20489 ft | 411 kts | 99° |
| 2026-05-01 14:44 | 54.91135 | 84.01448 | 21111 ft | 414 kts | 99° |
| 2026-05-01 14:44 | 54.90340 | 84.11397 | 22407 ft | 417 kts | 99° |
| 2026-05-01 14:44 | 54.89937 | 84.16395 | 23074 ft | 418 kts | 99° |
| 2026-05-01 14:45 | 54.89538 | 84.21333 | 23720 ft | 419 kts | 99° |
| 2026-05-01 14:45 | 54.88720 | 84.31350 | 24879 ft | 418 kts | 99° |
| 2026-05-01 14:45 | 54.88309 | 84.36342 | 25476 ft | 417 kts | 99° |
| 2026-05-01 14:46 | 54.87897 | 84.41320 | 26087 ft | 416 kts | 99° |
| 2026-05-01 14:46 | 54.87073 | 84.51201 | 27353 ft | 411 kts | 99° |
| 2026-05-01 14:46 | 54.86663 | 84.56088 | 28003 ft | 407 kts | 99° |
| 2026-05-01 14:47 | 54.86255 | 84.60924 | 28667 ft | 402 kts | 99° |
| 2026-05-01 14:47 | 54.85850 | 84.65693 | 29350 ft | 397 kts | 99° |
| 2026-05-01 14:47 | 54.85484 | 84.70401 | 30045 ft | 390 kts | 97° |
| 2026-05-01 14:48 | 54.85038 | 84.79542 | 31239 ft | 374 kts | 95° |
| 2026-05-01 14:48 | 54.84833 | 84.84018 | 31711 ft | 371 kts | 95° |
| 2026-05-01 14:48 | 54.84382 | 84.93013 | 32098 ft | 379 kts | 95° |
| 2026-05-01 14:49 | 54.83886 | 85.02296 | 32241 ft | 394 kts | 95° |
| 2026-05-01 14:49 | 54.83359 | 85.11950 | 32392 ft | 410 kts | 95° |
| 2026-05-01 14:50 | 54.82996 | 85.18539 | 32501 ft | 420 kts | 95° |
| 2026-05-01 14:50 | 54.84323 | 85.31845 | 32693 ft | 433 kts | 58° |
| 2026-05-01 14:51 | 54.86077 | 85.36105 | 32745 ft | 436 kts | 44° |
| 2026-05-01 14:51 | 54.90355 | 85.43779 | 32928 ft | 449 kts | 43° |
| 2026-05-01 14:52 | 54.94740 | 85.51646 | 33389 ft | 455 kts | 43° |
| 2026-05-01 14:52 | 54.96941 | 85.55621 | 33660 ft | 457 kts | 43° |
| 2026-05-01 14:52 | 55.01329 | 85.63576 | 34192 ft | 460 kts | 43° |
| 2026-05-01 14:53 | 55.03543 | 85.67600 | 34430 ft | 460 kts | 43° |
| 2026-05-01 14:53 | 55.05755 | 85.71628 | 34672 ft | 459 kts | 43° |
| 2026-05-01 14:53 | 55.07961 | 85.75653 | 34916 ft | 458 kts | 43° |
| 2026-05-01 14:53 | 55.10159 | 85.79669 | 35032 ft | 457 kts | 43° |
| 2026-05-01 14:54 | 55.12354 | 85.83686 | 35045 ft | 457 kts | 43° |
| 2026-05-01 14:54 | 55.16736 | 85.91725 | 35047 ft | 457 kts | 43° |
| 2026-05-01 14:55 | 55.21109 | 85.99774 | 35047 ft | 457 kts | 43° |
| 2026-05-01 14:55 | 55.25331 | 86.08012 | 35050 ft | 459 kts | 50° |
| 2026-05-01 14:56 | 55.28685 | 86.17595 | 35048 ft | 464 kts | 62° |
| 2026-05-01 14:56 | 55.31269 | 86.28013 | 35047 ft | 465 kts | 63° |
| 2026-05-01 14:57 | 55.33845 | 86.38437 | 35047 ft | 465 kts | 64° |
| 2026-05-01 14:57 | 55.37674 | 86.54134 | 35046 ft | 466 kts | 64° |
| 2026-05-01 14:58 | 55.40194 | 86.64557 | 35045 ft | 466 kts | 64° |
| 2026-05-01 14:58 | 55.42724 | 86.75073 | 35050 ft | 467 kts | 64° |
| 2026-05-01 14:59 | 55.45247 | 86.85609 | 35050 ft | 467 kts | 64° |
| 2026-05-01 14:59 | 55.47762 | 86.96163 | 35051 ft | 467 kts | 64° |
| 2026-05-01 15:00 | 55.51523 | 87.12041 | 35055 ft | 468 kts | 64° |
| 2026-05-01 15:01 | 55.54004 | 87.22582 | 35057 ft | 468 kts | 64° |
| 2026-05-01 15:01 | 55.56495 | 87.33215 | 35059 ft | 469 kts | 64° |
| 2026-05-01 15:02 | 55.58978 | 87.43870 | 35061 ft | 469 kts | 64° |
| 2026-05-01 15:02 | 55.61454 | 87.54542 | 35066 ft | 469 kts | 63° |
| 2026-05-01 15:03 | 55.63922 | 87.65238 | 35066 ft | 469 kts | 63° |
| 2026-05-01 15:03 | 55.66384 | 87.75949 | 35066 ft | 470 kts | 63° |
| 2026-05-01 15:04 | 55.68821 | 87.86605 | 35069 ft | 470 kts | 63° |
| 2026-05-01 15:04 | 55.71263 | 87.97344 | 35067 ft | 470 kts | 63° |
| 2026-05-01 15:05 | 55.73700 | 88.08114 | 35076 ft | 470 kts | 63° |
| 2026-05-01 15:05 | 55.76129 | 88.18900 | 35084 ft | 470 kts | 63° |
| 2026-05-01 15:06 | 55.78546 | 88.29690 | 35075 ft | 470 kts | 63° |
| 2026-05-01 15:06 | 55.80934 | 88.40406 | 35075 ft | 470 kts | 63° |
| 2026-05-01 15:07 | 55.82943 | 88.49464 | 35076 ft | 470 kts | 63° |
| 2026-05-01 15:07 | 55.85316 | 88.60212 | 35077 ft | 470 kts | 63° |
| 2026-05-01 15:08 | 55.87696 | 88.71053 | 35077 ft | 470 kts | 63° |
| 2026-05-01 15:08 | 55.90064 | 88.81894 | 35079 ft | 470 kts | 63° |
| 2026-05-01 15:09 | 55.92426 | 88.92759 | 35081 ft | 470 kts | 63° |
| 2026-05-01 15:09 | 55.94777 | 89.03632 | 35083 ft | 470 kts | 63° |
| 2026-05-01 15:10 | 55.97113 | 89.14545 | 35080 ft | 470 kts | 64° |
| 2026-05-01 15:10 | 56.00569 | 89.30853 | 35076 ft | 470 kts | 64° |
| 2026-05-01 15:11 | 56.03408 | 89.47709 | 35078 ft | 477 kts | 73° |
| 2026-05-01 15:12 | 56.04741 | 89.59337 | 35091 ft | 477 kts | 74° |
| 2026-05-01 15:12 | 56.06617 | 89.76828 | 34882 ft | 479 kts | 74° |
| 2026-05-01 15:13 | 56.08457 | 89.94502 | 32449 ft | 490 kts | 75° |
| 2026-05-01 15:14 | 56.09701 | 90.06613 | 30671 ft | 494 kts | 76° |
| 2026-05-01 15:14 | 56.10310 | 90.12619 | 30150 ft | 487 kts | 76° |
| 2026-05-01 15:14 | 56.11500 | 90.24432 | 28938 ft | 475 kts | 76° |
| 2026-05-01 15:15 | 56.12652 | 90.35939 | 27794 ft | 464 kts | 76° |
| 2026-05-01 15:15 | 56.13761 | 90.47127 | 26681 ft | 454 kts | 76° |
| 2026-05-01 15:16 | 56.14846 | 90.58165 | 25580 ft | 446 kts | 76° |
| 2026-05-01 15:16 | 56.15903 | 90.69025 | 24455 ft | 439 kts | 76° |
| 2026-05-01 15:17 | 56.16938 | 90.79748 | 23351 ft | 432 kts | 77° |
| 2026-05-01 15:18 | 56.18429 | 90.95422 | 21739 ft | 417 kts | 77° |
| 2026-05-01 15:18 | 56.18910 | 91.00532 | 21211 ft | 413 kts | 77° |
| 2026-05-01 15:19 | 56.20312 | 91.15535 | 19650 ft | 403 kts | 77° |
| 2026-05-01 15:19 | 56.21201 | 91.25445 | 19011 ft | 406 kts | 77° |
| 2026-05-01 15:19 | 56.21692 | 91.30472 | 18582 ft | 411 kts | 76° |
| 2026-05-01 15:20 | 56.22659 | 91.40615 | 17473 ft | 409 kts | 78° |
| 2026-05-01 15:20 | 56.23104 | 91.45625 | 16932 ft | 403 kts | 78° |
| 2026-05-01 15:20 | 56.23540 | 91.50576 | 16409 ft | 398 kts | 78° |
| 2026-05-01 15:21 | 56.23972 | 91.55462 | 15891 ft | 393 kts | 78° |
| 2026-05-01 15:21 | 56.24393 | 91.60227 | 15386 ft | 389 kts | 78° |
| 2026-05-01 15:21 | 56.24816 | 91.65003 | 14877 ft | 385 kts | 78° |
| 2026-05-01 15:21 | 56.25233 | 91.69736 | 14383 ft | 381 kts | 78° |
| 2026-05-01 15:22 | 56.26050 | 91.79067 | 13368 ft | 374 kts | 79° |
| 2026-05-01 15:22 | 56.26449 | 91.83663 | 12885 ft | 369 kts | 79° |
| 2026-05-01 15:22 | 56.26841 | 91.88196 | 12407 ft | 365 kts | 79° |
| 2026-05-01 15:23 | 56.27226 | 91.92673 | 11936 ft | 360 kts | 79° |
| 2026-05-01 15:23 | 56.27606 | 91.97107 | 11468 ft | 357 kts | 79° |
| 2026-05-01 15:23 | 56.27975 | 92.01437 | 11015 ft | 353 kts | 79° |
| 2026-05-01 15:23 | 56.28343 | 92.05779 | 10573 ft | 349 kts | 80° |
| 2026-05-01 15:24 | 56.28702 | 92.10031 | 10410 ft | 336 kts | 80° |
| 2026-05-01 15:24 | 56.29043 | 92.14107 | 10284 ft | 323 kts | 80° |
| 2026-05-01 15:24 | 56.29352 | 92.18031 | 10162 ft | 311 kts | 83° |
| 2026-05-01 15:24 | 56.29369 | 92.21889 | 9838 ft | 307 kts | 94° |
| 2026-05-01 15:25 | 56.29117 | 92.25651 | 9605 ft | 299 kts | 96° |
| 2026-05-01 15:25 | 56.28875 | 92.29348 | 9254 ft | 295 kts | 96° |
| 2026-05-01 15:25 | 56.28645 | 92.33007 | 8852 ft | 294 kts | 96° |
| 2026-05-01 15:25 | 56.28416 | 92.36658 | 8500 ft | 291 kts | 96° |
| 2026-05-01 15:26 | 56.28194 | 92.40150 | 8393 ft | 279 kts | 96° |
| 2026-05-01 15:26 | 56.27978 | 92.43530 | 8285 ft | 267 kts | 96° |
| 2026-05-01 15:26 | 56.27769 | 92.46784 | 8132 ft | 258 kts | 96° |
| 2026-05-01 15:26 | 56.27563 | 92.49977 | 7835 ft | 256 kts | 96° |
| 2026-05-01 15:27 | 56.27358 | 92.53142 | 7531 ft | 254 kts | 96° |
| 2026-05-01 15:27 | 56.27153 | 92.56292 | 7230 ft | 252 kts | 96° |
| 2026-05-01 15:27 | 56.26949 | 92.59411 | 6953 ft | 250 kts | 96° |
| 2026-05-01 15:28 | 56.26543 | 92.65592 | 6359 ft | 247 kts | 97° |
| 2026-05-01 15:28 | 56.26154 | 92.68559 | 6162 ft | 240 kts | 110° |
| 2026-05-01 15:28 | 56.25507 | 92.71265 | 5974 ft | 233 kts | 114° |
| 2026-05-01 15:29 | 56.24237 | 92.76519 | 5500 ft | 227 kts | 114° |
| 2026-05-01 15:29 | 56.23619 | 92.79100 | 5297 ft | 223 kts | 114° |
| 2026-05-01 15:29 | 56.21877 | 92.83376 | 4980 ft | 214 kts | 155° |
| 2026-05-01 15:30 | 56.19017 | 92.82985 | 4911 ft | 214 kts | 205° |
| 2026-05-01 15:31 | 56.13563 | 92.78719 | 4939 ft | 214 kts | 204° |
| 2026-05-01 15:31 | 56.11547 | 92.75626 | 4589 ft | 185 kts | 254° |
| 2026-05-01 15:32 | 56.12016 | 92.71479 | 4173 ft | 166 kts | 294° |
| 2026-05-01 15:32 | 56.12885 | 92.67944 | 3791 ft | 146 kts | 293° |
| 2026-05-01 15:33 | 56.14025 | 92.63082 | 3163 ft | 144 kts | 291° |
| 2026-05-01 15:34 | 56.15210 | 92.57996 | 1921 ft | 153 kts | 293° |